< < Back
Terminal Aerodrome Forecast


Current Version              Previous Versions:   1  2  3  4  5  6  7  8  9  

Terminal Aerodrome Forecast

851
FTUS42 KCAE 280540
TAFCAE
TAF
KCAE 280540Z 2806/2906 VRB03KT P6SM SCT050 SCT250
      TEMPO 2809/2812 5SM BR
     FM281300 VRB05KT P6SM SCT025
      TEMPO 2813/2815 BKN025
     FM281600 16008KT P6SM BKN040
     FM282300 VRB04KT P6SM SCT120 BKN250=



Latest METAR

821
SAUS80 KWBC 280600 RRA
MTRCAE
METAR KCAE 280556Z 00000KT 10SM FEW060 21/19 A3020 RMK AO2 SLP223
T02110189 10261 20211 58005


USA.gov is the U.S. government's official web portal to all federal, state and local government web resources and services.